sensor_id;sensor_type;location;lat;lon;timestamp;temperature;humidity
30572;DHT22;17348;50.948;10.696;2022-08-11T00:01:10;17.50;94.80
30572;DHT22;17348;50.948;10.696;2022-08-11T00:04:15;17.50;94.70
30572;DHT22;17348;50.948;10.696;2022-08-11T00:07:18;17.40;94.50
30572;DHT22;17348;50.948;10.696;2022-08-11T00:10:23;17.40;94.60
30572;DHT22;17348;50.948;10.696;2022-08-11T00:13:31;17.40;95.00
30572;DHT22;17348;50.948;10.696;2022-08-11T00:16:36;17.30;94.90
30572;DHT22;17348;50.948;10.696;2022-08-11T00:19:42;17.20;95.00
30572;DHT22;17348;50.948;10.696;2022-08-11T00:22:46;17.20;95.20
30572;DHT22;17348;50.948;10.696;2022-08-11T00:25:50;17.20;95.50
30572;DHT22;17348;50.948;10.696;2022-08-11T00:28:53;17.00;95.50
30572;DHT22;17348;50.948;10.696;2022-08-11T00:31:58;17.00;95.60
30572;DHT22;17348;50.948;10.696;2022-08-11T00:35:04;17.00;95.90
30572;DHT22;17348;50.948;10.696;2022-08-11T00:38:08;16.90;96.10
30572;DHT22;17348;50.948;10.696;2022-08-11T00:41:30;16.90;95.90
30572;DHT22;17348;50.948;10.696;2022-08-11T00:44:44;16.80;96.20
30572;DHT22;17348;50.948;10.696;2022-08-11T00:47:58;16.80;96.00
30572;DHT22;17348;50.948;10.696;2022-08-11T00:51:12;16.80;96.20
30572;DHT22;17348;50.948;10.696;2022-08-11T00:58:26;16.80;96.30
30572;DHT22;17348;50.948;10.696;2022-08-11T01:01:40;16.70;96.30
30572;DHT22;17348;50.948;10.696;2022-08-11T01:05:06;16.70;96.30
30572;DHT22;17348;50.948;10.696;2022-08-11T01:26:26;16.50;96.60
30572;DHT22;17348;50.948;10.696;2022-08-11T01:30:06;16.40;96.70
30572;DHT22;17348;50.948;10.696;2022-08-11T01:40:48;16.30;97.30
30572;DHT22;17348;50.948;10.696;2022-08-11T01:44:08;16.20;97.50
30572;DHT22;17348;50.948;10.696;2022-08-11T01:47:34;16.20;97.60
30572;DHT22;17348;50.948;10.696;2022-08-11T01:51:12;16.20;97.70
30572;DHT22;17348;50.948;10.696;2022-08-11T01:54:22;16.10;97.60
30572;DHT22;17348;50.948;10.696;2022-08-11T01:57:35;16.00;97.80
30572;DHT22;17348;50.948;10.696;2022-08-11T02:00:47;16.00;98.30
30572;DHT22;17348;50.948;10.696;2022-08-11T02:03:56;15.90;98.50
30572;DHT22;17348;50.948;10.696;2022-08-11T02:07:09;15.90;98.20
30572;DHT22;17348;50.948;10.696;2022-08-11T02:10:22;15.80;98.50
30572;DHT22;17348;50.948;10.696;2022-08-11T02:13:50;15.80;98.60
30572;DHT22;17348;50.948;10.696;2022-08-11T02:17:06;15.80;99.30
30572;DHT22;17348;50.948;10.696;2022-08-11T02:20:18;15.80;99.10
30572;DHT22;17348;50.948;10.696;2022-08-11T02:23:42;15.70;99.60
30572;DHT22;17348;50.948;10.696;2022-08-11T02:26:52;15.70;99.60
30572;DHT22;17348;50.948;10.696;2022-08-11T02:30:03;15.60;99.40
30572;DHT22;17348;50.948;10.696;2022-08-11T02:33:19;15.60;99.70
30572;DHT22;17348;50.948;10.696;2022-08-11T02:36:39;15.60;99.70
30572;DHT22;17348;50.948;10.696;2022-08-11T02:39:53;15.60;99.90
30572;DHT22;17348;50.948;10.696;2022-08-11T02:43:16;15.50;99.90
30572;DHT22;17348;50.948;10.696;2022-08-11T02:46:27;15.40;99.90
30572;DHT22;17348;50.948;10.696;2022-08-11T02:49:46;15.40;99.90
30572;DHT22;17348;50.948;10.696;2022-08-11T02:53:00;15.40;99.90
30572;DHT22;17348;50.948;10.696;2022-08-11T02:56:07;15.40;99.90
30572;DHT22;17348;50.948;10.696;2022-08-11T02:59:27;15.30;99.90
30572;DHT22;17348;50.948;10.696;2022-08-11T03:03:11;15.30;99.90
30572;DHT22;17348;50.948;10.696;2022-08-11T03:06:24;15.30;99.90
30572;DHT22;17348;50.948;10.696;2022-08-11T03:09:42;15.30;99.90
30572;DHT22;17348;50.948;10.696;2022-08-11T03:12:50;15.30;99.90
30572;DHT22;17348;50.948;10.696;2022-08-11T03:16:15;15.20;99.90
30572;DHT22;17348;50.948;10.696;2022-08-11T03:19:59;15.20;99.90
30572;DHT22;17348;50.948;10.696;2022-08-11T03:23:08;15.20;99.90
30572;DHT22;17348;50.948;10.696;2022-08-11T03:26:21;15.20;99.90
30572;DHT22;17348;50.948;10.696;2022-08-11T03:29:30;15.10;99.90
30572;DHT22;17348;50.948;10.696;2022-08-11T03:32:45;15.10;99.90
30572;DHT22;17348;50.948;10.696;2022-08-11T03:36:22;15.10;99.90
30572;DHT22;17348;50.948;10.696;2022-08-11T03:39:41;15.00;99.90
30572;DHT22;17348;50.948;10.696;2022-08-11T03:42:54;14.90;99.90
30572;DHT22;17348;50.948;10.696;2022-08-11T03:46:03;14.90;99.90
30572;DHT22;17348;50.948;10.696;2022-08-11T03:49:18;14.90;99.90
30572;DHT22;17348;50.948;10.696;2022-08-11T03:52:38;14.80;99.90
30572;DHT22;17348;50.948;10.696;2022-08-11T03:56:12;14.70;99.90
30572;DHT22;17348;50.948;10.696;2022-08-11T04:10:36;14.50;99.90
30572;DHT22;17348;50.948;10.696;2022-08-11T04:14:30;14.50;99.90
30572;DHT22;17348;50.948;10.696;2022-08-11T04:25:20;14.50;99.90
30572;DHT22;17348;50.948;10.696;2022-08-11T04:28:53;14.50;99.90
30572;DHT22;17348;50.948;10.696;2022-08-11T04:32:09;14.50;99.90
30572;DHT22;17348;50.948;10.696;2022-08-11T04:35:25;14.50;99.90
30572;DHT22;17348;50.948;10.696;2022-08-11T04:38:44;14.50;99.90
30572;DHT22;17348;50.948;10.696;2022-08-11T04:46:05;14.60;99.90
30572;DHT22;17348;50.948;10.696;2022-08-11T04:49:27;14.70;99.90
30572;DHT22;17348;50.948;10.696;2022-08-11T04:56:46;14.80;99.90
30572;DHT22;17348;50.948;10.696;2022-08-11T05:00:09;14.80;99.90
30572;DHT22;17348;50.948;10.696;2022-08-11T05:08:16;15.00;99.90
30572;DHT22;17348;50.948;10.696;2022-08-11T05:15:11;15.10;99.90
30572;DHT22;17348;50.948;10.696;2022-08-11T05:18:32;15.20;99.90
30572;DHT22;17348;50.948;10.696;2022-08-11T05:21:56;15.30;99.90
30572;DHT22;17348;50.948;10.696;2022-08-11T05:25:21;15.50;99.90
30572;DHT22;17348;50.948;10.696;2022-08-11T05:28:49;15.70;99.90
30572;DHT22;17348;50.948;10.696;2022-08-11T05:32:12;15.90;99.90
30572;DHT22;17348;50.948;10.696;2022-08-11T05:35:39;16.00;99.90
30572;DHT22;17348;50.948;10.696;2022-08-11T05:38:52;16.10;99.90
30572;DHT22;17348;50.948;10.696;2022-08-11T05:42:16;16.30;99.90
30572;DHT22;17348;50.948;10.696;2022-08-11T05:45:38;16.50;99.90
30572;DHT22;17348;50.948;10.696;2022-08-11T05:48:59;16.60;99.90
30572;DHT22;17348;50.948;10.696;2022-08-11T05:52:22;16.80;99.90
30572;DHT22;17348;50.948;10.696;2022-08-11T05:55:43;17.00;99.90
30572;DHT22;17348;50.948;10.696;2022-08-11T05:59:11;17.10;99.90
30572;DHT22;17348;50.948;10.696;2022-08-11T06:02:14;17.30;99.90
30572;DHT22;17348;50.948;10.696;2022-08-11T06:05:17;17.40;99.90
30572;DHT22;17348;50.948;10.696;2022-08-11T06:08:27;17.50;99.90
30572;DHT22;17348;50.948;10.696;2022-08-11T06:11:36;17.60;99.90
30572;DHT22;17348;50.948;10.696;2022-08-11T06:14:43;17.70;99.90
30572;DHT22;17348;50.948;10.696;2022-08-11T06:17:47;17.90;99.90
30572;DHT22;17348;50.948;10.696;2022-08-11T06:20:52;18.00;99.90
30572;DHT22;17348;50.948;10.696;2022-08-11T06:23:55;18.20;99.90
30572;DHT22;17348;50.948;10.696;2022-08-11T06:26:58;18.30;99.90
30572;DHT22;17348;50.948;10.696;2022-08-11T06:30:04;18.50;99.90
30572;DHT22;17348;50.948;10.696;2022-08-11T06:33:18;18.60;99.90
30572;DHT22;17348;50.948;10.696;2022-08-11T06:36:26;18.80;99.90
30572;DHT22;17348;50.948;10.696;2022-08-11T06:39:44;19.00;99.80
30572;DHT22;17348;50.948;10.696;2022-08-11T06:42:53;19.20;99.30
30572;DHT22;17348;50.948;10.696;2022-08-11T06:46:04;19.40;97.80
30572;DHT22;17348;50.948;10.696;2022-08-11T06:49:08;19.50;96.60
30572;DHT22;17348;50.948;10.696;2022-08-11T06:52:34;19.60;96.70
30572;DHT22;17348;50.948;10.696;2022-08-11T06:55:40;19.70;96.00
30572;DHT22;17348;50.948;10.696;2022-08-11T06:59:00;19.90;95.60
30572;DHT22;17348;50.948;10.696;2022-08-11T07:02:23;20.00;95.30
30572;DHT22;17348;50.948;10.696;2022-08-11T07:05:37;20.20;95.20
30572;DHT22;17348;50.948;10.696;2022-08-11T07:09:08;20.30;94.80
30572;DHT22;17348;50.948;10.696;2022-08-11T07:12:40;20.50;94.40
30572;DHT22;17348;50.948;10.696;2022-08-11T07:16:02;20.60;94.30
30572;DHT22;17348;50.948;10.696;2022-08-11T07:19:07;20.80;93.70
30572;DHT22;17348;50.948;10.696;2022-08-11T07:22:29;20.90;93.30
30572;DHT22;17348;50.948;10.696;2022-08-11T07:25:52;21.00;93.40
30572;DHT22;17348;50.948;10.696;2022-08-11T07:29:13;21.20;93.10
30572;DHT22;17348;50.948;10.696;2022-08-11T07:32:21;21.40;92.90
30572;DHT22;17348;50.948;10.696;2022-08-11T07:35:30;21.50;92.90
30572;DHT22;17348;50.948;10.696;2022-08-11T07:38:39;21.70;91.90
30572;DHT22;17348;50.948;10.696;2022-08-11T07:41:46;21.80;91.50
30572;DHT22;17348;50.948;10.696;2022-08-11T07:44:49;22.00;91.40
30572;DHT22;17348;50.948;10.696;2022-08-11T07:48:11;22.10;91.60
30572;DHT22;17348;50.948;10.696;2022-08-11T07:51:33;22.10;91.30
30572;DHT22;17348;50.948;10.696;2022-08-11T07:54:55;22.20;91.10
30572;DHT22;17348;50.948;10.696;2022-08-11T07:57:59;22.30;90.80
30572;DHT22;17348;50.948;10.696;2022-08-11T08:01:20;22.40;90.60
30572;DHT22;17348;50.948;10.696;2022-08-11T08:04:40;22.50;89.90
30572;DHT22;17348;50.948;10.696;2022-08-11T08:08:02;22.60;90.10
30572;DHT22;17348;50.948;10.696;2022-08-11T08:11:23;22.60;89.50
30572;DHT22;17348;50.948;10.696;2022-08-11T08:14:43;22.70;89.80
30572;DHT22;17348;50.948;10.696;2022-08-11T08:18:04;22.90;89.40
30572;DHT22;17348;50.948;10.696;2022-08-11T08:21:08;22.90;89.10
30572;DHT22;17348;50.948;10.696;2022-08-11T08:24:17;23.00;88.70
30572;DHT22;17348;50.948;10.696;2022-08-11T08:27:20;23.20;88.10
30572;DHT22;17348;50.948;10.696;2022-08-11T08:30:27;23.30;87.50
30572;DHT22;17348;50.948;10.696;2022-08-11T08:33:47;23.50;87.10
30572;DHT22;17348;50.948;10.696;2022-08-11T08:36:51;23.60;87.90
30572;DHT22;17348;50.948;10.696;2022-08-11T08:39:55;23.70;87.80
30572;DHT22;17348;50.948;10.696;2022-08-11T08:43:02;23.90;86.70
30572;DHT22;17348;50.948;10.696;2022-08-11T08:46:08;24.00;86.80
30572;DHT22;17348;50.948;10.696;2022-08-11T08:49:15;24.00;86.60
30572;DHT22;17348;50.948;10.696;2022-08-11T08:52:22;24.20;85.80
30572;DHT22;17348;50.948;10.696;2022-08-11T08:55:27;24.30;85.10
30572;DHT22;17348;50.948;10.696;2022-08-11T08:58:36;24.30;85.30
30572;DHT22;17348;50.948;10.696;2022-08-11T09:01:42;24.40;84.30
30572;DHT22;17348;50.948;10.696;2022-08-11T09:04:47;24.50;83.60
30572;DHT22;17348;50.948;10.696;2022-08-11T09:07:52;24.50;83.10
30572;DHT22;17348;50.948;10.696;2022-08-11T09:11:00;24.70;83.10
30572;DHT22;17348;50.948;10.696;2022-08-11T09:14:22;24.80;82.70
30572;DHT22;17348;50.948;10.696;2022-08-11T09:17:26;24.90;81.90
30572;DHT22;17348;50.948;10.696;2022-08-11T09:20:31;25.00;81.90
30572;DHT22;17348;50.948;10.696;2022-08-11T09:23:34;25.20;79.80
30572;DHT22;17348;50.948;10.696;2022-08-11T09:26:56;25.30;79.50
30572;DHT22;17348;50.948;10.696;2022-08-11T09:30:04;25.50;79.60
30572;DHT22;17348;50.948;10.696;2022-08-11T09:33:06;25.70;78.50
30572;DHT22;17348;50.948;10.696;2022-08-11T09:36:12;25.80;78.00
30572;DHT22;17348;50.948;10.696;2022-08-11T09:39:35;26.00;78.00
30572;DHT22;17348;50.948;10.696;2022-08-11T09:43:02;26.20;75.60
30572;DHT22;17348;50.948;10.696;2022-08-11T09:46:26;26.30;76.80
30572;DHT22;17348;50.948;10.696;2022-08-11T09:49:29;26.50;75.60
30572;DHT22;17348;50.948;10.696;2022-08-11T09:52:40;26.70;74.20
30572;DHT22;17348;50.948;10.696;2022-08-11T09:55:43;26.80;73.10
30572;DHT22;17348;50.948;10.696;2022-08-11T09:58:48;26.90;72.20
30572;DHT22;17348;50.948;10.696;2022-08-11T10:01:54;27.10;73.60
30572;DHT22;17348;50.948;10.696;2022-08-11T10:04:59;27.40;72.80
30572;DHT22;17348;50.948;10.696;2022-08-11T10:08:17;27.60;71.80
30572;DHT22;17348;50.948;10.696;2022-08-11T10:11:21;27.90;68.00
30572;DHT22;17348;50.948;10.696;2022-08-11T10:14:26;27.90;67.70
30572;DHT22;17348;50.948;10.696;2022-08-11T10:17:50;27.80;67.60
30572;DHT22;17348;50.948;10.696;2022-08-11T10:21:11;28.00;67.40
30572;DHT22;17348;50.948;10.696;2022-08-11T10:24:33;28.10;67.60
30572;DHT22;17348;50.948;10.696;2022-08-11T10:27:53;28.20;67.70
30572;DHT22;17348;50.948;10.696;2022-08-11T10:31:03;28.40;69.00
30572;DHT22;17348;50.948;10.696;2022-08-11T10:34:42;28.60;64.90
30572;DHT22;17348;50.948;10.696;2022-08-11T10:37:46;28.40;65.40
30572;DHT22;17348;50.948;10.696;2022-08-11T10:40:49;28.50;66.10
30572;DHT22;17348;50.948;10.696;2022-08-11T10:44:12;28.40;65.90
30572;DHT22;17348;50.948;10.696;2022-08-11T10:47:16;28.50;65.60
30572;DHT22;17348;50.948;10.696;2022-08-11T10:50:39;28.50;65.20
30572;DHT22;17348;50.948;10.696;2022-08-11T10:53:59;28.50;66.10
30572;DHT22;17348;50.948;10.696;2022-08-11T10:57:19;28.50;66.50
30572;DHT22;17348;50.948;10.696;2022-08-11T11:00:39;28.50;65.50
30572;DHT22;17348;50.948;10.696;2022-08-11T11:03:43;28.30;66.90
30572;DHT22;17348;50.948;10.696;2022-08-11T11:06:51;28.40;66.30
30572;DHT22;17348;50.948;10.696;2022-08-11T11:09:57;28.40;66.30
30572;DHT22;17348;50.948;10.696;2022-08-11T11:13:00;28.60;66.10
30572;DHT22;17348;50.948;10.696;2022-08-11T11:16:26;28.70;65.50
30572;DHT22;17348;50.948;10.696;2022-08-11T11:19:49;28.80;65.00
30572;DHT22;17348;50.948;10.696;2022-08-11T11:22:59;28.80;64.60
30572;DHT22;17348;50.948;10.696;2022-08-11T11:26:24;28.80;64.40
30572;DHT22;17348;50.948;10.696;2022-08-11T11:29:43;28.60;64.90
30572;DHT22;17348;50.948;10.696;2022-08-11T11:32:55;28.80;65.00
30572;DHT22;17348;50.948;10.696;2022-08-11T11:36:10;28.90;65.00
30572;DHT22;17348;50.948;10.696;2022-08-11T11:39:18;28.80;64.50
30572;DHT22;17348;50.948;10.696;2022-08-11T11:42:22;28.80;65.30
30572;DHT22;17348;50.948;10.696;2022-08-11T11:45:25;28.80;65.80
30572;DHT22;17348;50.948;10.696;2022-08-11T11:48:27;29.00;64.80
30572;DHT22;17348;50.948;10.696;2022-08-11T11:51:32;29.10;63.10
30572;DHT22;17348;50.948;10.696;2022-08-11T11:54:34;29.10;62.70
30572;DHT22;17348;50.948;10.696;2022-08-11T11:57:37;29.00;61.90
30572;DHT22;17348;50.948;10.696;2022-08-11T12:00:57;29.00;61.40
30572;DHT22;17348;50.948;10.696;2022-08-11T12:04:20;28.90;61.10
30572;DHT22;17348;50.948;10.696;2022-08-11T12:07:24;29.00;60.90
30572;DHT22;17348;50.948;10.696;2022-08-11T12:10:46;29.00;61.40
30572;DHT22;17348;50.948;10.696;2022-08-11T12:13:51;28.90;60.60
30572;DHT22;17348;50.948;10.696;2022-08-11T12:16:55;29.00;60.00
30572;DHT22;17348;50.948;10.696;2022-08-11T12:19:58;29.10;60.20
30572;DHT22;17348;50.948;10.696;2022-08-11T12:23:02;29.10;60.70
30572;DHT22;17348;50.948;10.696;2022-08-11T12:26:23;29.20;60.00
30572;DHT22;17348;50.948;10.696;2022-08-11T12:29:45;29.40;59.80
30572;DHT22;17348;50.948;10.696;2022-08-11T12:32:48;29.20;59.10
30572;DHT22;17348;50.948;10.696;2022-08-11T12:35:55;29.20;59.40
30572;DHT22;17348;50.948;10.696;2022-08-11T12:39:01;29.20;59.50
30572;DHT22;17348;50.948;10.696;2022-08-11T12:42:04;29.30;59.70
30572;DHT22;17348;50.948;10.696;2022-08-11T12:45:25;29.40;60.50
30572;DHT22;17348;50.948;10.696;2022-08-11T12:48:32;29.40;59.00
30572;DHT22;17348;50.948;10.696;2022-08-11T12:51:53;29.40;59.10
30572;DHT22;17348;50.948;10.696;2022-08-11T12:55:04;29.60;59.30
30572;DHT22;17348;50.948;10.696;2022-08-11T12:58:14;29.50;58.50
30572;DHT22;17348;50.948;10.696;2022-08-11T13:01:17;29.50;58.50
30572;DHT22;17348;50.948;10.696;2022-08-11T13:04:38;29.50;58.30
30572;DHT22;17348;50.948;10.696;2022-08-11T13:08:01;29.50;58.60
30572;DHT22;17348;50.948;10.696;2022-08-11T13:11:06;29.50;59.10
30572;DHT22;17348;50.948;10.696;2022-08-11T13:14:26;29.60;58.80
30572;DHT22;17348;50.948;10.696;2022-08-11T13:17:29;29.80;57.80
30572;DHT22;17348;50.948;10.696;2022-08-11T13:20:35;29.80;58.20
30572;DHT22;17348;50.948;10.696;2022-08-11T13:23:37;30.00;58.10
30572;DHT22;17348;50.948;10.696;2022-08-11T13:26:43;30.00;57.80
30572;DHT22;17348;50.948;10.696;2022-08-11T13:29:50;29.80;57.10
30572;DHT22;17348;50.948;10.696;2022-08-11T13:33:22;29.70;57.70
30572;DHT22;17348;50.948;10.696;2022-08-11T13:36:24;29.70;57.70
30572;DHT22;17348;50.948;10.696;2022-08-11T13:39:29;29.70;57.90
30572;DHT22;17348;50.948;10.696;2022-08-11T13:42:34;29.70;57.60
30572;DHT22;17348;50.948;10.696;2022-08-11T13:45:37;29.70;58.10
30572;DHT22;17348;50.948;10.696;2022-08-11T13:48:40;29.70;57.40
30572;DHT22;17348;50.948;10.696;2022-08-11T13:51:43;29.60;57.70
30572;DHT22;17348;50.948;10.696;2022-08-11T13:54:49;29.60;57.80
30572;DHT22;17348;50.948;10.696;2022-08-11T13:57:54;29.60;57.80
30572;DHT22;17348;50.948;10.696;2022-08-11T14:01:13;29.60;57.80
30572;DHT22;17348;50.948;10.696;2022-08-11T14:04:27;29.70;57.70
30572;DHT22;17348;50.948;10.696;2022-08-11T14:07:34;29.60;57.50
30572;DHT22;17348;50.948;10.696;2022-08-11T14:10:38;29.70;57.00
30572;DHT22;17348;50.948;10.696;2022-08-11T14:13:44;29.60;56.70
30572;DHT22;17348;50.948;10.696;2022-08-11T14:16:47;29.70;57.10
30572;DHT22;17348;50.948;10.696;2022-08-11T14:19:51;29.80;56.50
30572;DHT22;17348;50.948;10.696;2022-08-11T14:22:54;29.70;57.00
30572;DHT22;17348;50.948;10.696;2022-08-11T14:25:57;29.80;57.20
30572;DHT22;17348;50.948;10.696;2022-08-11T14:29:21;29.70;57.00
30572;DHT22;17348;50.948;10.696;2022-08-11T14:32:24;29.70;57.20
30572;DHT22;17348;50.948;10.696;2022-08-11T14:35:27;29.70;57.30
30572;DHT22;17348;50.948;10.696;2022-08-11T14:38:31;29.80;57.60
30572;DHT22;17348;50.948;10.696;2022-08-11T14:41:33;29.70;57.40
30572;DHT22;17348;50.948;10.696;2022-08-11T14:44:57;29.70;57.80
30572;DHT22;17348;50.948;10.696;2022-08-11T14:48:16;29.60;57.70
30572;DHT22;17348;50.948;10.696;2022-08-11T14:51:21;29.40;57.10
30572;DHT22;17348;50.948;10.696;2022-08-11T14:54:25;29.30;56.90
30572;DHT22;17348;50.948;10.696;2022-08-11T14:57:47;29.30;57.50
30572;DHT22;17348;50.948;10.696;2022-08-11T15:00:53;29.20;57.10
30572;DHT22;17348;50.948;10.696;2022-08-11T15:03:57;29.10;56.60
30572;DHT22;17348;50.948;10.696;2022-08-11T15:07:00;29.00;57.30
30572;DHT22;17348;50.948;10.696;2022-08-11T15:10:05;29.00;57.60
30572;DHT22;17348;50.948;10.696;2022-08-11T15:13:09;28.90;57.40
30572;DHT22;17348;50.948;10.696;2022-08-11T15:16:13;29.00;57.50
30572;DHT22;17348;50.948;10.696;2022-08-11T15:19:34;29.10;57.70
30572;DHT22;17348;50.948;10.696;2022-08-11T15:22:37;29.10;57.40
30572;DHT22;17348;50.948;10.696;2022-08-11T15:25:59;29.20;57.40
30572;DHT22;17348;50.948;10.696;2022-08-11T15:29:02;29.10;57.00
30572;DHT22;17348;50.948;10.696;2022-08-11T15:32:25;29.10;57.40
30572;DHT22;17348;50.948;10.696;2022-08-11T15:35:45;29.00;57.10
30572;DHT22;17348;50.948;10.696;2022-08-11T15:39:12;29.10;57.30
30572;DHT22;17348;50.948;10.696;2022-08-11T15:42:17;29.10;58.00
30572;DHT22;17348;50.948;10.696;2022-08-11T15:45:38;29.10;58.40
30572;DHT22;17348;50.948;10.696;2022-08-11T15:48:56;29.00;58.00
30572;DHT22;17348;50.948;10.696;2022-08-11T15:52:10;28.80;57.20
30572;DHT22;17348;50.948;10.696;2022-08-11T15:55:15;28.80;57.90
30572;DHT22;17348;50.948;10.696;2022-08-11T15:58:19;28.90;57.60
30572;DHT22;17348;50.948;10.696;2022-08-11T16:01:41;28.80;56.80
30572;DHT22;17348;50.948;10.696;2022-08-11T16:05:07;28.80;57.10
30572;DHT22;17348;50.948;10.696;2022-08-11T16:08:11;28.70;57.40
30572;DHT22;17348;50.948;10.696;2022-08-11T16:11:15;28.70;57.80
30572;DHT22;17348;50.948;10.696;2022-08-11T16:14:19;28.70;58.30
30572;DHT22;17348;50.948;10.696;2022-08-11T16:17:43;28.70;58.50
30572;DHT22;17348;50.948;10.696;2022-08-11T16:20:49;28.70;58.40
30572;DHT22;17348;50.948;10.696;2022-08-11T16:23:54;28.60;58.50
30572;DHT22;17348;50.948;10.696;2022-08-11T16:27:00;28.50;58.70
30572;DHT22;17348;50.948;10.696;2022-08-11T16:30:03;28.50;59.40
30572;DHT22;17348;50.948;10.696;2022-08-11T16:33:07;28.50;58.80
30572;DHT22;17348;50.948;10.696;2022-08-11T16:36:13;28.40;58.80
30572;DHT22;17348;50.948;10.696;2022-08-11T16:39:33;28.40;58.70
30572;DHT22;17348;50.948;10.696;2022-08-11T16:42:37;28.40;58.60
30572;DHT22;17348;50.948;10.696;2022-08-11T16:45:58;28.40;58.80
30572;DHT22;17348;50.948;10.696;2022-08-11T16:49:22;28.40;58.50
30572;DHT22;17348;50.948;10.696;2022-08-11T16:52:28;28.30;58.50
30572;DHT22;17348;50.948;10.696;2022-08-11T16:55:30;28.30;58.90
30572;DHT22;17348;50.948;10.696;2022-08-11T16:58:36;28.30;59.40
30572;DHT22;17348;50.948;10.696;2022-08-11T17:02:02;28.30;58.60
30572;DHT22;17348;50.948;10.696;2022-08-11T17:05:09;28.20;59.00
30572;DHT22;17348;50.948;10.696;2022-08-11T17:08:33;28.10;58.90
30572;DHT22;17348;50.948;10.696;2022-08-11T17:11:55;28.00;59.10
30572;DHT22;17348;50.948;10.696;2022-08-11T17:15:17;27.90;59.00
30572;DHT22;17348;50.948;10.696;2022-08-11T17:18:43;27.80;59.00
30572;DHT22;17348;50.948;10.696;2022-08-11T17:21:47;27.80;59.20
30572;DHT22;17348;50.948;10.696;2022-08-11T17:25:07;27.70;59.30
30572;DHT22;17348;50.948;10.696;2022-08-11T17:28:12;27.60;59.50
30572;DHT22;17348;50.948;10.696;2022-08-11T17:31:15;27.50;59.70
30572;DHT22;17348;50.948;10.696;2022-08-11T17:34:38;27.50;59.90
30572;DHT22;17348;50.948;10.696;2022-08-11T17:38:01;27.40;60.00
30572;DHT22;17348;50.948;10.696;2022-08-11T17:41:06;27.30;60.20
30572;DHT22;17348;50.948;10.696;2022-08-11T17:44:27;27.30;60.60
30572;DHT22;17348;50.948;10.696;2022-08-11T17:47:47;27.20;60.60
30572;DHT22;17348;50.948;10.696;2022-08-11T17:51:10;27.10;60.70
30572;DHT22;17348;50.948;10.696;2022-08-11T17:54:13;27.00;60.80
30572;DHT22;17348;50.948;10.696;2022-08-11T17:57:36;27.00;61.30
30572;DHT22;17348;50.948;10.696;2022-08-11T18:00:57;26.90;61.30
30572;DHT22;17348;50.948;10.696;2022-08-11T18:04:02;26.90;61.50
30572;DHT22;17348;50.948;10.696;2022-08-11T18:07:06;26.80;61.70
30572;DHT22;17348;50.948;10.696;2022-08-11T18:10:26;26.80;61.90
30572;DHT22;17348;50.948;10.696;2022-08-11T18:13:50;26.70;62.00
30572;DHT22;17348;50.948;10.696;2022-08-11T18:17:11;26.70;61.80
30572;DHT22;17348;50.948;10.696;2022-08-11T18:20:34;26.60;62.00
30572;DHT22;17348;50.948;10.696;2022-08-11T18:23:55;26.50;62.10
30572;DHT22;17348;50.948;10.696;2022-08-11T18:27:16;26.40;62.20
30572;DHT22;17348;50.948;10.696;2022-08-11T18:30:42;26.40;62.20
30572;DHT22;17348;50.948;10.696;2022-08-11T18:34:05;26.30;62.60
30572;DHT22;17348;50.948;10.696;2022-08-11T18:37:28;26.20;62.80
30572;DHT22;17348;50.948;10.696;2022-08-11T18:40:49;26.10;62.60
30572;DHT22;17348;50.948;10.696;2022-08-11T18:44:12;26.00;62.80
30572;DHT22;17348;50.948;10.696;2022-08-11T18:47:36;25.90;63.00
30572;DHT22;17348;50.948;10.696;2022-08-11T18:51:00;25.80;63.10
30572;DHT22;17348;50.948;10.696;2022-08-11T18:54:21;25.70;63.30
30572;DHT22;17348;50.948;10.696;2022-08-11T18:57:43;25.60;63.60
30572;DHT22;17348;50.948;10.696;2022-08-11T19:01:07;25.50;63.60
30572;DHT22;17348;50.948;10.696;2022-08-11T19:04:30;25.40;63.80
30572;DHT22;17348;50.948;10.696;2022-08-11T19:07:52;25.30;64.00
30572;DHT22;17348;50.948;10.696;2022-08-11T19:11:14;25.20;64.20
30572;DHT22;17348;50.948;10.696;2022-08-11T19:14:34;25.10;64.70
30572;DHT22;17348;50.948;10.696;2022-08-11T19:17:56;25.00;64.90
30572;DHT22;17348;50.948;10.696;2022-08-11T19:21:18;24.90;65.60
30572;DHT22;17348;50.948;10.696;2022-08-11T19:24:39;24.80;65.60
30572;DHT22;17348;50.948;10.696;2022-08-11T19:27:59;24.70;66.20
30572;DHT22;17348;50.948;10.696;2022-08-11T19:31:22;24.50;66.10
30572;DHT22;17348;50.948;10.696;2022-08-11T19:34:42;24.40;67.50
30572;DHT22;17348;50.948;10.696;2022-08-11T19:38:05;24.30;67.10
30572;DHT22;17348;50.948;10.696;2022-08-11T19:41:26;24.20;68.30
30572;DHT22;17348;50.948;10.696;2022-08-11T19:44:46;24.10;68.10
30572;DHT22;17348;50.948;10.696;2022-08-11T19:48:07;23.90;69.60
30572;DHT22;17348;50.948;10.696;2022-08-11T19:51:28;23.80;69.50
30572;DHT22;17348;50.948;10.696;2022-08-11T19:54:49;23.70;69.60
30572;DHT22;17348;50.948;10.696;2022-08-11T19:58:11;23.60;69.80
30572;DHT22;17348;50.948;10.696;2022-08-11T20:01:31;23.50;70.40
30572;DHT22;17348;50.948;10.696;2022-08-11T20:04:51;23.30;71.20
30572;DHT22;17348;50.948;10.696;2022-08-11T20:08:12;23.20;71.00
30572;DHT22;17348;50.948;10.696;2022-08-11T20:11:36;23.10;71.70
30572;DHT22;17348;50.948;10.696;2022-08-11T20:14:58;23.00;72.10
30572;DHT22;17348;50.948;10.696;2022-08-11T20:18:18;22.90;72.30
30572;DHT22;17348;50.948;10.696;2022-08-11T20:21:40;22.80;72.80
30572;DHT22;17348;50.948;10.696;2022-08-11T20:25:02;22.70;73.60
30572;DHT22;17348;50.948;10.696;2022-08-11T20:28:25;22.60;73.10
30572;DHT22;17348;50.948;10.696;2022-08-11T20:31:46;22.50;73.20
30572;DHT22;17348;50.948;10.696;2022-08-11T20:35:08;22.50;74.00
30572;DHT22;17348;50.948;10.696;2022-08-11T20:38:30;22.50;73.70
30572;DHT22;17348;50.948;10.696;2022-08-11T20:41:52;22.40;74.60
30572;DHT22;17348;50.948;10.696;2022-08-11T20:45:14;22.40;75.00
30572;DHT22;17348;50.948;10.696;2022-08-11T20:48:34;22.40;74.90
30572;DHT22;17348;50.948;10.696;2022-08-11T20:51:55;22.30;74.70
30572;DHT22;17348;50.948;10.696;2022-08-11T20:55:15;22.30;75.80
30572;DHT22;17348;50.948;10.696;2022-08-11T20:58:37;22.30;75.00
30572;DHT22;17348;50.948;10.696;2022-08-11T21:01:59;22.30;75.40
30572;DHT22;17348;50.948;10.696;2022-08-11T21:05:20;22.20;75.30
30572;DHT22;17348;50.948;10.696;2022-08-11T21:08:40;22.20;75.60
30572;DHT22;17348;50.948;10.696;2022-08-11T21:12:01;22.10;75.40